createdAt,value
2016-08-26T00:00:51.082Z,0
2016-08-26T00:01:51.100Z,0
2016-08-26T00:02:51.149Z,0
2016-08-26T00:03:51.213Z,0
2016-08-26T00:04:51.055Z,0
2016-08-26T00:05:51.336Z,0
2016-08-26T00:06:51.165Z,0
2016-08-26T00:07:51.062Z,0
2016-08-26T00:08:51.073Z,0
2016-08-26T00:09:51.091Z,0
2016-08-26T00:10:51.067Z,0
2016-08-26T00:11:51.057Z,0
2016-08-26T00:12:51.100Z,0
2016-08-26T00:13:51.842Z,0
2016-08-26T00:14:51.254Z,0
2016-08-26T00:15:51.130Z,0
2016-08-26T00:16:51.007Z,0
2016-08-26T00:17:51.060Z,0
2016-08-26T00:18:51.108Z,0
2016-08-26T00:19:51.156Z,0
2016-08-26T00:20:51.092Z,0
2016-08-26T00:21:51.089Z,0
2016-08-26T00:22:51.042Z,0
2016-08-26T00:23:51.077Z,0
2016-08-26T00:24:51.054Z,0
2016-08-26T00:25:51.049Z,0
2016-08-26T00:26:51.013Z,0
2016-08-26T00:27:51.784Z,0
2016-08-26T00:28:51.072Z,0
2016-08-26T00:29:51.199Z,0
2016-08-26T00:30:51.001Z,0
2016-08-26T00:31:51.050Z,0
2016-08-26T00:32:51.058Z,0
2016-08-26T00:33:51.065Z,0
2016-08-26T00:34:51.133Z,0
2016-08-26T00:35:51.038Z,0
2016-08-26T00:36:51.006Z,0
2016-08-26T00:37:51.023Z,0
2016-08-26T00:38:51.868Z,0
2016-08-26T00:39:51.042Z,0
2016-08-26T00:40:50.990Z,0
2016-08-26T00:41:51.008Z,0
2016-08-26T00:42:51.155Z,0
2016-08-26T00:43:51.920Z,0
2016-08-26T00:44:51.091Z,0
2016-08-26T00:45:51.009Z,0
2016-08-26T00:46:51.066Z,0
2016-08-26T00:47:50.996Z,0
2016-08-26T00:48:51.223Z,0
2016-08-26T00:49:50.970Z,0
2016-08-26T00:50:50.967Z,0
2016-08-26T00:51:51.041Z,0
2016-08-26T00:52:51.072Z,0
2016-08-26T00:53:50.981Z,0
2016-08-26T00:54:51.089Z,0
2016-08-26T00:55:51.211Z,0
2016-08-26T00:56:50.988Z,0
2016-08-26T00:57:50.977Z,0
2016-08-26T00:58:50.948Z,0
2016-08-26T00:59:50.940Z,0
2016-08-26T01:00:50.972Z,0
2016-08-26T01:01:51.042Z,0
2016-08-26T01:02:50.946Z,0
2016-08-26T01:03:50.925Z,0
2016-08-26T01:04:50.982Z,0
2016-08-26T01:05:50.986Z,0
2016-08-26T01:06:50.953Z,0
2016-08-26T01:07:50.963Z,0
2016-08-26T01:08:51.011Z,0
2016-08-26T01:09:51.018Z,0
2016-08-26T01:10:51.052Z,0
2016-08-26T01:11:50.965Z,0
2016-08-26T01:12:50.925Z,0
2016-08-26T01:13:50.942Z,0
2016-08-26T01:14:50.943Z,0
2016-08-26T01:15:51.065Z,0
2016-08-26T01:16:50.922Z,0
2016-08-26T01:17:51.740Z,0
2016-08-26T01:18:50.937Z,0
2016-08-26T01:19:50.951Z,0
2016-08-26T01:20:50.958Z,0
2016-08-26T01:21:51.013Z,0
2016-08-26T01:22:50.906Z,0
2016-08-26T01:23:50.898Z,0
2016-08-26T01:24:50.893Z,0
2016-08-26T01:25:50.965Z,0
2016-08-26T01:26:51.013Z,0
2016-08-26T01:27:50.875Z,0
2016-08-26T01:28:50.907Z,0
2016-08-26T01:29:50.888Z,0
2016-08-26T01:30:50.955Z,0
2016-08-26T01:31:50.944Z,0
2016-08-26T01:32:50.879Z,0
2016-08-26T01:33:50.884Z,0
2016-08-26T01:34:50.938Z,0
2016-08-26T01:35:50.856Z,0
2016-08-26T01:36:50.867Z,0
2016-08-26T01:37:50.846Z,0
2016-08-26T01:38:50.883Z,0
2016-08-26T01:39:50.879Z,0
2016-08-26T01:40:50.873Z,0
2016-08-26T01:41:51.588Z,0
2016-08-26T01:42:50.855Z,0
2016-08-26T01:43:50.825Z,0
2016-08-26T01:44:50.866Z,0
2016-08-26T01:45:50.867Z,0
2016-08-26T01:46:50.840Z,0
2016-08-26T01:47:50.958Z,0
2016-08-26T01:48:50.848Z,0
2016-08-26T01:49:50.873Z,0
2016-08-26T01:50:50.881Z,0
2016-08-26T01:51:50.869Z,0
2016-08-26T01:52:51.010Z,0
2016-08-26T01:53:50.789Z,0
2016-08-26T01:54:50.778Z,0
2016-08-26T01:55:50.769Z,0
2016-08-26T01:56:50.788Z,0
2016-08-26T01:57:50.783Z,0
2016-08-26T01:58:50.790Z,0
2016-08-26T01:59:50.804Z,0
2016-08-26T02:00:50.797Z,0
2016-08-26T02:01:50.782Z,0
2016-08-26T02:02:50.830Z,0
2016-08-26T02:03:50.782Z,0
2016-08-26T02:04:50.784Z,0
2016-08-26T02:05:51.462Z,0
2016-08-26T02:06:50.752Z,0
2016-08-26T02:07:50.781Z,0
2016-08-26T02:08:50.770Z,0
2016-08-26T02:09:50.796Z,0
2016-08-26T02:10:50.771Z,0
2016-08-26T02:11:50.749Z,0
2016-08-26T02:12:50.741Z,0
2016-08-26T02:13:50.782Z,0
2016-08-26T02:14:50.925Z,0
2016-08-26T02:15:50.872Z,0
2016-08-26T02:16:50.755Z,0
2016-08-26T02:17:50.758Z,0
2016-08-26T02:18:50.749Z,0
2016-08-26T02:19:50.776Z,0
2016-08-26T02:20:50.800Z,0
2016-08-26T02:21:50.753Z,0
2016-08-26T02:22:50.753Z,0
2016-08-26T02:23:50.768Z,0
2016-08-26T02:24:50.891Z,0
2016-08-26T02:25:50.748Z,0
2016-08-26T02:26:50.810Z,0
2016-08-26T02:27:50.885Z,0
2016-08-26T02:28:50.736Z,0
2016-08-26T02:29:50.740Z,0
2016-08-26T02:30:50.722Z,0
2016-08-26T02:31:50.754Z,0
2016-08-26T02:32:50.754Z,0
2016-08-26T02:33:50.777Z,0
2016-08-26T02:34:50.788Z,0
2016-08-26T02:35:50.763Z,0
2016-08-26T02:36:50.761Z,0
2016-08-26T02:37:50.714Z,0
2016-08-26T02:38:50.948Z,0
2016-08-26T02:39:50.706Z,0
2016-08-26T02:40:50.824Z,0
2016-08-26T02:41:50.806Z,0
2016-08-26T02:42:50.704Z,0
2016-08-26T02:43:50.822Z,0
2016-08-26T02:44:50.739Z,0
2016-08-26T02:45:50.701Z,0
2016-08-26T02:46:50.702Z,0
2016-08-26T02:47:50.773Z,0
2016-08-26T02:48:50.727Z,0
2016-08-26T02:49:50.694Z,0
2016-08-26T02:50:50.716Z,0
2016-08-26T02:51:50.819Z,0
2016-08-26T02:52:51.422Z,0
2016-08-26T02:53:50.690Z,0
2016-08-26T02:54:50.916Z,0
2016-08-26T02:55:50.692Z,0
2016-08-26T02:56:50.651Z,0
2016-08-26T02:57:50.638Z,0
2016-08-26T02:58:50.832Z,0
2016-08-26T02:59:50.751Z,0
2016-08-26T03:00:50.670Z,0
2016-08-26T03:01:50.671Z,0
2016-08-26T03:02:50.659Z,0
2016-08-26T03:03:50.652Z,0
2016-08-26T03:04:50.679Z,0
2016-08-26T03:05:50.644Z,0
2016-08-26T03:06:50.762Z,0
2016-08-26T03:07:50.687Z,0
2016-08-26T03:08:50.662Z,0
2016-08-26T03:09:50.638Z,0
2016-08-26T03:10:51.528Z,0
2016-08-26T03:11:50.629Z,0
2016-08-26T03:12:50.623Z,0
2016-08-26T03:13:51.335Z,0
2016-08-26T03:14:50.747Z,0
2016-08-26T03:15:50.647Z,0
2016-08-26T03:16:50.861Z,0
2016-08-26T03:17:51.350Z,0
2016-08-26T03:18:50.592Z,0
2016-08-26T03:19:50.590Z,0
2016-08-26T03:20:50.609Z,0
2016-08-26T03:21:50.588Z,0
2016-08-26T03:22:50.738Z,0
2016-08-26T03:23:50.574Z,0
2016-08-26T03:24:50.579Z,0
2016-08-26T03:25:50.609Z,0
2016-08-26T03:26:50.557Z,0
2016-08-26T03:27:50.566Z,0
2016-08-26T03:28:50.571Z,0
2016-08-26T03:29:50.667Z,0
2016-08-26T03:30:50.568Z,0
2016-08-26T03:31:51.287Z,0
2016-08-26T03:32:50.620Z,0
2016-08-26T03:33:50.581Z,0
2016-08-26T03:34:50.553Z,0
2016-08-26T03:35:51.288Z,0
2016-08-26T03:36:50.529Z,0
2016-08-26T03:37:50.559Z,0
2016-08-26T03:38:50.539Z,0
2016-08-26T03:39:50.525Z,0
2016-08-26T03:40:50.543Z,0
2016-08-26T03:41:50.534Z,0
2016-08-26T03:42:50.534Z,0
2016-08-26T03:43:50.537Z,0
2016-08-26T03:44:50.672Z,0
2016-08-26T03:45:50.659Z,0
2016-08-26T03:46:50.551Z,0
2016-08-26T03:47:50.548Z,0
2016-08-26T03:48:50.606Z,0
2016-08-26T03:49:50.778Z,0
2016-08-26T03:50:50.604Z,0
2016-08-26T03:51:51.246Z,0
2016-08-26T03:52:50.539Z,0
2016-08-26T03:53:50.565Z,0
2016-08-26T03:54:50.756Z,0
2016-08-26T03:55:50.521Z,0
2016-08-26T03:56:51.367Z,0
2016-08-26T03:57:50.680Z,0
2016-08-26T03:58:50.712Z,0
2016-08-26T03:59:50.605Z,0
2016-08-26T04:00:50.534Z,0
2016-08-26T04:01:50.541Z,0
2016-08-26T04:02:50.576Z,0
2016-08-26T04:03:50.501Z,0
2016-08-26T04:04:50.567Z,0
2016-08-26T04:05:50.596Z,0
2016-08-26T04:06:50.490Z,0
2016-08-26T04:07:50.538Z,0
2016-08-26T04:08:50.633Z,0
2016-08-26T04:09:50.546Z,0
2016-08-26T04:10:50.635Z,0
2016-08-26T04:11:50.739Z,0
2016-08-26T04:12:50.461Z,0
2016-08-26T04:13:50.459Z,0
2016-08-26T04:14:50.539Z,5
2016-08-26T04:15:50.486Z,5
2016-08-26T04:16:50.461Z,5
2016-08-26T04:17:50.451Z,5
2016-08-26T04:18:50.534Z,5
2016-08-26T04:19:50.580Z,5
2016-08-26T04:20:50.628Z,5
2016-08-26T04:21:50.498Z,5
2016-08-26T04:22:50.427Z,5
2016-08-26T04:23:51.336Z,5
2016-08-26T04:24:50.547Z,10
2016-08-26T04:26:05.504Z,10
2016-08-26T04:26:51.169Z,10
2016-08-26T04:27:51.523Z,10
2016-08-26T04:28:50.521Z,10
2016-08-26T04:29:50.472Z,10
2016-08-26T04:30:50.419Z,10
2016-08-26T04:31:50.547Z,10
2016-08-26T04:32:50.541Z,15
2016-08-26T04:33:51.133Z,15
2016-08-26T04:34:50.704Z,15
2016-08-26T04:36:05.503Z,15
2016-08-26T04:36:50.420Z,15
2016-08-26T04:37:50.567Z,15
2016-08-26T04:38:50.379Z,15
2016-08-26T04:39:50.762Z,20
2016-08-26T04:40:50.644Z,20
2016-08-26T04:41:50.452Z,20
2016-08-26T04:42:51.745Z,20
2016-08-26T04:43:50.441Z,20
2016-08-26T04:44:50.382Z,20
2016-08-26T04:45:50.457Z,20
2016-08-26T04:46:50.381Z,20
2016-08-26T04:47:50.397Z,25
2016-08-26T04:48:50.376Z,25
2016-08-26T04:49:50.386Z,25
2016-08-26T04:50:50.463Z,25
2016-08-26T04:51:50.355Z,25
2016-08-26T04:52:50.747Z,25
2016-08-26T04:53:50.794Z,25
2016-08-26T04:54:50.340Z,25
2016-08-26T04:55:50.332Z,30
2016-08-26T04:56:50.405Z,30
2016-08-26T04:57:50.435Z,30
2016-08-26T04:58:50.640Z,30
2016-08-26T04:59:50.349Z,30
2016-08-26T05:00:50.380Z,30
2016-08-26T05:01:50.493Z,30
2016-08-26T05:02:50.449Z,30
2016-08-26T05:03:50.288Z,30
2016-08-26T05:04:50.361Z,35
2016-08-26T05:05:50.421Z,35
2016-08-26T05:06:50.332Z,35
2016-08-26T05:07:50.416Z,35
2016-08-26T05:08:50.351Z,35
2016-08-26T05:09:50.315Z,35
2016-08-26T05:10:50.288Z,35
2016-08-26T05:11:50.290Z,35
2016-08-26T05:12:50.315Z,35
2016-08-26T05:13:50.410Z,35
2016-08-26T05:14:51.174Z,40
2016-08-26T05:15:50.520Z,40
2016-08-26T05:16:51.027Z,40
2016-08-26T05:17:50.362Z,40
2016-08-26T05:18:51.169Z,40
2016-08-26T05:19:50.405Z,40
2016-08-26T05:20:50.254Z,40
2016-08-26T05:21:50.321Z,40
2016-08-26T05:22:51.021Z,40
2016-08-26T05:23:50.251Z,40
2016-08-26T05:24:50.301Z,40
2016-08-26T05:25:50.393Z,40
2016-08-26T05:26:50.311Z,40
2016-08-26T05:27:50.405Z,45
2016-08-26T05:28:50.277Z,45
2016-08-26T05:29:50.223Z,45
2016-08-26T05:30:50.288Z,45
2016-08-26T05:31:50.288Z,45
2016-08-26T05:32:50.442Z,45
2016-08-26T05:33:50.473Z,45
2016-08-26T05:34:50.298Z,45
2016-08-26T05:35:50.243Z,45
2016-08-26T05:36:50.330Z,45
2016-08-26T05:37:50.459Z,45
2016-08-26T05:38:50.239Z,45
2016-08-26T05:39:50.252Z,45
2016-08-26T05:40:50.472Z,45
2016-08-26T05:41:50.310Z,45
2016-08-26T05:42:50.255Z,45
2016-08-26T05:43:50.458Z,50
2016-08-26T05:44:51.200Z,50
2016-08-26T05:45:50.211Z,50
2016-08-26T05:46:50.272Z,50
2016-08-26T05:47:50.200Z,50
2016-08-26T05:48:50.193Z,50
2016-08-26T05:49:50.270Z,50
2016-08-26T05:50:50.162Z,50
2016-08-26T05:51:50.157Z,50
2016-08-26T05:52:50.251Z,50
2016-08-26T05:53:50.182Z,50
2016-08-26T05:54:50.182Z,50
2016-08-26T05:55:50.180Z,50
2016-08-26T05:56:50.133Z,50
2016-08-26T05:57:50.152Z,50
2016-08-26T05:58:50.204Z,50
2016-08-26T05:59:50.146Z,50
2016-08-26T06:00:50.564Z,50
2016-08-26T06:01:50.148Z,50
2016-08-26T06:02:50.130Z,50
2016-08-26T06:03:50.200Z,50
2016-08-26T06:04:50.352Z,50
2016-08-26T06:05:50.183Z,50
2016-08-26T06:06:50.465Z,50
2016-08-26T06:07:50.135Z,55
2016-08-26T06:08:50.271Z,55
2016-08-26T06:09:50.866Z,55
2016-08-26T06:10:50.478Z,55
2016-08-26T06:11:50.204Z,55
2016-08-26T06:12:50.150Z,55
2016-08-26T06:13:50.163Z,55
2016-08-26T06:14:50.926Z,55
2016-08-26T06:15:50.134Z,55
2016-08-26T06:16:50.104Z,55
2016-08-26T06:17:50.136Z,55
2016-08-26T06:18:50.895Z,55
2016-08-26T06:19:50.099Z,55
2016-08-26T06:20:50.188Z,55
2016-08-26T06:21:50.149Z,55
2016-08-26T06:22:50.076Z,55
2016-08-26T06:23:50.175Z,55
2016-08-26T06:24:50.091Z,55
2016-08-26T06:25:50.209Z,55
2016-08-26T06:26:50.101Z,55
2016-08-26T06:27:50.578Z,55
2016-08-26T06:28:50.116Z,55
2016-08-26T06:29:51.240Z,55
2016-08-26T06:30:50.291Z,55
2016-08-26T06:31:50.079Z,55
2016-08-26T06:32:50.133Z,55
2016-08-26T06:33:51.176Z,55
2016-08-26T06:34:50.080Z,60
2016-08-26T06:35:50.073Z,60
2016-08-26T06:36:50.095Z,60
2016-08-26T06:37:50.252Z,60
2016-08-26T06:38:50.075Z,60
2016-08-26T06:39:50.730Z,60
2016-08-26T06:40:50.207Z,65
2016-08-26T06:41:50.066Z,70
2016-08-26T06:42:50.111Z,60
2016-08-26T06:43:50.087Z,60
2016-08-26T06:44:50.081Z,95
2016-08-26T06:45:50.744Z,95
2016-08-26T06:46:50.046Z,110
2016-08-26T06:47:50.063Z,115
2016-08-26T06:48:50.257Z,120
2016-08-26T06:49:50.033Z,115
2016-08-26T06:50:49.998Z,110
2016-08-26T06:51:50.021Z,105
2016-08-26T06:52:50.152Z,95
2016-08-26T06:53:50.196Z,90
2016-08-26T06:54:50.125Z,90
2016-08-26T06:55:50.260Z,85
2016-08-26T06:56:50.143Z,85
2016-08-26T06:57:50.103Z,85
2016-08-26T06:58:50.022Z,85
2016-08-26T06:59:52.683Z,80
2016-08-26T07:00:50.851Z,80
2016-08-26T07:01:49.991Z,80
2016-08-26T07:02:50.058Z,75
2016-08-26T07:03:50.383Z,75
2016-08-26T07:04:50.005Z,75
2016-08-26T07:05:50.728Z,75
2016-08-26T07:06:51.514Z,75
2016-08-26T07:07:50.048Z,75
2016-08-26T07:08:50.060Z,75
2016-08-26T07:09:50.017Z,75
2016-08-26T07:10:50.015Z,75
2016-08-26T07:11:50.018Z,75
2016-08-26T07:12:50.005Z,75
2016-08-26T07:13:50.024Z,75
2016-08-26T07:14:50.322Z,75
2016-08-26T07:15:50.015Z,75
2016-08-26T07:16:49.997Z,75
2016-08-26T07:17:50.159Z,75
2016-08-26T07:18:50.211Z,75
2016-08-26T07:19:50.113Z,75
2016-08-26T07:20:50.152Z,75
2016-08-26T07:21:50.079Z,75
2016-08-26T07:22:50.028Z,75
2016-08-26T07:23:50.212Z,75
2016-08-26T07:24:50.202Z,75
2016-08-26T07:25:50.177Z,75
2016-08-26T07:26:50.771Z,75
2016-08-26T07:27:53.593Z,75
2016-08-26T07:28:50.013Z,75
2016-08-26T07:29:50.056Z,75
2016-08-26T07:30:50.074Z,75
2016-08-26T07:31:50.086Z,75
2016-08-26T07:32:50.023Z,75
2016-08-26T07:33:50.210Z,75
2016-08-26T07:34:50.060Z,80
2016-08-26T07:35:50.065Z,80
2016-08-26T07:36:50.126Z,80
2016-08-26T07:37:50.033Z,80
2016-08-26T07:38:50.063Z,80
2016-08-26T07:39:50.190Z,80
2016-08-26T07:40:50.081Z,80
2016-08-26T07:41:50.234Z,80
2016-08-26T07:42:50.067Z,80
2016-08-26T07:43:50.181Z,80
2016-08-26T07:44:50.072Z,80
2016-08-26T07:45:50.049Z,80
2016-08-26T07:46:50.133Z,80
2016-08-26T07:47:50.060Z,80
2016-08-26T07:48:50.038Z,80
2016-08-26T07:49:50.085Z,80
2016-08-26T07:50:50.036Z,80
2016-08-26T07:51:50.141Z,80
2016-08-26T07:52:50.056Z,80
2016-08-26T07:53:50.150Z,80
2016-08-26T07:54:50.054Z,80
2016-08-26T07:55:50.049Z,80
2016-08-26T07:56:50.101Z,80
2016-08-26T07:57:50.044Z,80
2016-08-26T07:58:50.074Z,80
2016-08-26T07:59:50.101Z,80
2016-08-26T08:00:50.069Z,80
2016-08-26T08:01:50.783Z,80
2016-08-26T08:02:50.105Z,80
2016-08-26T08:03:50.836Z,80
2016-08-26T08:04:50.082Z,80
2016-08-26T08:05:50.099Z,80
2016-08-26T08:06:50.098Z,80
2016-08-26T08:07:51.072Z,80
2016-08-26T08:08:50.091Z,80
2016-08-26T08:09:50.108Z,80
2016-08-26T08:10:50.083Z,80
2016-08-26T08:11:50.083Z,80
2016-08-26T08:12:50.101Z,80
2016-08-26T08:13:50.057Z,80
2016-08-26T08:14:50.083Z,80
2016-08-26T08:15:50.078Z,80
2016-08-26T08:16:50.094Z,80
2016-08-26T08:17:50.116Z,80
2016-08-26T08:18:50.111Z,80
2016-08-26T08:19:50.112Z,80
2016-08-26T08:20:50.079Z,80
2016-08-26T08:21:50.091Z,80
2016-08-26T08:22:50.305Z,80
2016-08-26T08:23:50.806Z,80
2016-08-26T08:24:50.131Z,80
2016-08-26T08:25:50.107Z,80
2016-08-26T08:26:50.108Z,80
2016-08-26T08:27:50.108Z,80
2016-08-26T08:28:50.155Z,80
2016-08-26T08:30:05.728Z,80
2016-08-26T08:30:50.126Z,80
2016-08-26T08:31:50.140Z,80
2016-08-26T08:32:50.427Z,80
2016-08-26T08:33:50.136Z,80
2016-08-26T08:34:50.836Z,80
2016-08-26T08:35:50.556Z,80
2016-08-26T08:36:50.122Z,80
2016-08-26T08:37:50.916Z,80
2016-08-26T08:38:50.140Z,80
2016-08-26T08:39:50.146Z,80
2016-08-26T08:40:50.298Z,80
2016-08-26T08:41:50.206Z,80
2016-08-26T08:42:50.178Z,80
2016-08-26T08:43:50.178Z,80
2016-08-26T08:44:50.174Z,80
2016-08-26T08:45:50.181Z,80
2016-08-26T08:46:50.206Z,80
2016-08-26T08:47:50.177Z,80
2016-08-26T08:48:50.149Z,80
2016-08-26T08:49:50.188Z,80
2016-08-26T08:50:50.161Z,80
2016-08-26T08:51:50.181Z,80
2016-08-26T08:52:50.208Z,80
2016-08-26T08:53:50.189Z,80
2016-08-26T08:54:50.195Z,80
2016-08-26T08:55:50.198Z,80
2016-08-26T08:56:50.199Z,80
2016-08-26T08:57:50.196Z,80
2016-08-26T08:58:50.213Z,80
2016-08-26T08:59:50.178Z,80
2016-08-26T09:00:50.224Z,80
2016-08-26T09:01:50.203Z,80
2016-08-26T09:02:50.197Z,80
2016-08-26T09:03:50.193Z,80
2016-08-26T09:04:50.229Z,80
2016-08-26T09:05:50.959Z,80
2016-08-26T09:06:50.219Z,80
2016-08-26T09:07:50.253Z,80
2016-08-26T09:08:50.405Z,80
2016-08-26T09:09:51.004Z,80
2016-08-26T09:10:50.301Z,80
2016-08-26T09:11:50.226Z,80
2016-08-26T09:12:50.222Z,80
2016-08-26T09:13:50.229Z,80
2016-08-26T09:14:50.228Z,80
2016-08-26T09:15:50.246Z,80
2016-08-26T09:16:50.265Z,80
2016-08-26T09:17:50.233Z,80
2016-08-26T09:18:50.252Z,80
2016-08-26T09:19:50.638Z,80
2016-08-26T09:20:50.252Z,80
2016-08-26T09:21:50.378Z,80
2016-08-26T09:22:50.255Z,80
2016-08-26T09:23:50.251Z,80
2016-08-26T09:24:50.245Z,80
2016-08-26T09:25:50.276Z,80
2016-08-26T09:26:50.282Z,80
2016-08-26T09:27:50.378Z,80
2016-08-26T09:28:50.300Z,80
2016-08-26T09:29:50.273Z,80
2016-08-26T09:30:50.480Z,80
2016-08-26T09:31:50.536Z,75
2016-08-26T09:32:50.291Z,75
2016-08-26T09:33:51.014Z,75
2016-08-26T09:34:51.012Z,80
2016-08-26T09:35:50.335Z,75
2016-08-26T09:36:50.286Z,75
2016-08-26T09:37:50.307Z,75
2016-08-26T09:38:50.322Z,75
2016-08-26T09:40:05.285Z,75
2016-08-26T09:40:50.324Z,75
2016-08-26T09:41:50.318Z,75
2016-08-26T09:42:50.315Z,75
2016-08-26T09:43:50.435Z,75
2016-08-26T09:44:50.427Z,75
2016-08-26T09:45:50.325Z,75
2016-08-26T09:46:50.338Z,75
2016-08-26T09:47:50.328Z,75
2016-08-26T09:48:50.353Z,75
2016-08-26T09:49:50.543Z,75
2016-08-26T09:50:50.369Z,75
2016-08-26T09:51:50.380Z,75
2016-08-26T09:52:50.601Z,75
2016-08-26T09:53:50.485Z,75
2016-08-26T09:54:50.360Z,75
2016-08-26T09:55:50.454Z,75
2016-08-26T09:56:50.406Z,75
2016-08-26T09:57:50.496Z,75
2016-08-26T09:58:50.378Z,75
2016-08-26T09:59:50.371Z,75
2016-08-26T10:00:50.377Z,75
2016-08-26T10:01:50.388Z,75
2016-08-26T10:02:50.642Z,75
2016-08-26T10:03:50.551Z,75
2016-08-26T10:04:50.377Z,75
2016-08-26T10:05:50.413Z,75
2016-08-26T10:06:50.400Z,75
2016-08-26T10:07:50.391Z,75
2016-08-26T10:08:50.427Z,75
2016-08-26T10:09:50.419Z,75
2016-08-26T10:10:50.477Z,75
2016-08-26T10:11:50.438Z,75
2016-08-26T10:12:50.432Z,75
2016-08-26T10:13:50.452Z,75
2016-08-26T10:14:50.461Z,75
2016-08-26T10:15:50.595Z,75
2016-08-26T10:16:50.458Z,75
2016-08-26T10:17:50.443Z,75
2016-08-26T10:18:50.426Z,75
2016-08-26T10:19:50.463Z,75
2016-08-26T10:20:50.483Z,75
2016-08-26T10:21:50.950Z,75
2016-08-26T10:22:50.452Z,75
2016-08-26T10:23:50.442Z,75
2016-08-26T10:24:50.469Z,75
2016-08-26T10:25:50.467Z,75
2016-08-26T10:26:50.554Z,75
2016-08-26T10:27:50.632Z,75
2016-08-26T10:28:50.560Z,75
2016-08-26T10:29:50.568Z,75
2016-08-26T10:30:50.566Z,75
2016-08-26T10:31:50.548Z,75
2016-08-26T10:32:50.553Z,80
2016-08-26T10:33:50.733Z,75
2016-08-26T10:34:50.483Z,75
2016-08-26T10:35:50.535Z,75
2016-08-26T10:36:51.341Z,75
2016-08-26T10:37:50.540Z,75
2016-08-26T10:38:50.662Z,75
2016-08-26T10:39:50.513Z,75
2016-08-26T10:40:50.529Z,75
2016-08-26T10:41:50.516Z,75
2016-08-26T10:42:50.503Z,75
2016-08-26T10:43:50.546Z,75
2016-08-26T10:44:50.619Z,75
2016-08-26T10:45:51.596Z,75
2016-08-26T10:46:50.545Z,75
2016-08-26T10:47:50.586Z,75
2016-08-26T10:48:50.533Z,75
2016-08-26T10:49:50.566Z,75
2016-08-26T10:50:50.548Z,75
2016-08-26T10:51:50.776Z,75
2016-08-26T10:52:50.589Z,75
2016-08-26T10:53:50.582Z,75
2016-08-26T10:54:51.570Z,75
2016-08-26T10:55:50.586Z,75
2016-08-26T10:56:50.866Z,75
2016-08-26T10:57:50.731Z,75
2016-08-26T10:58:50.619Z,75
2016-08-26T10:59:50.691Z,75
2016-08-26T11:00:51.309Z,75
2016-08-26T11:01:50.581Z,75
2016-08-26T11:02:50.613Z,75
2016-08-26T11:03:50.739Z,75
2016-08-26T11:04:50.680Z,75
2016-08-26T11:05:50.622Z,75
2016-08-26T11:06:50.638Z,75
2016-08-26T11:07:50.602Z,75
2016-08-26T11:08:50.631Z,75
2016-08-26T11:09:50.809Z,75
2016-08-26T11:10:50.640Z,75
2016-08-26T11:11:50.677Z,75
2016-08-26T11:12:50.713Z,75
2016-08-26T11:13:50.687Z,75
2016-08-26T11:14:50.673Z,75
2016-08-26T11:15:50.669Z,75
2016-08-26T11:16:50.665Z,75
2016-08-26T11:17:50.651Z,75
2016-08-26T11:18:50.662Z,75
2016-08-26T11:19:50.697Z,75
2016-08-26T11:20:50.671Z,75
2016-08-26T11:21:50.703Z,75
2016-08-26T11:22:51.398Z,75
2016-08-26T11:23:50.733Z,75
2016-08-26T11:24:50.713Z,75
2016-08-26T11:25:50.734Z,75
2016-08-26T11:26:50.787Z,75
2016-08-26T11:27:50.712Z,75
2016-08-26T11:28:50.703Z,75
2016-08-26T11:29:50.761Z,75
2016-08-26T11:30:50.727Z,75
2016-08-26T11:31:50.764Z,75
2016-08-26T11:32:50.734Z,75
2016-08-26T11:33:50.730Z,75
2016-08-26T11:34:50.744Z,75
2016-08-26T11:35:50.766Z,75
2016-08-26T11:36:50.828Z,75
2016-08-26T11:37:50.898Z,75
2016-08-26T11:38:50.739Z,75
2016-08-26T11:39:50.741Z,75
2016-08-26T11:40:50.869Z,75
2016-08-26T11:41:50.827Z,75
2016-08-26T11:42:50.797Z,75
2016-08-26T11:43:50.794Z,75
2016-08-26T11:44:51.459Z,75
2016-08-26T11:45:50.856Z,75
2016-08-26T11:46:51.578Z,75
2016-08-26T11:47:50.770Z,75
2016-08-26T11:48:50.752Z,75
2016-08-26T11:49:50.868Z,75
2016-08-26T11:50:50.824Z,75
2016-08-26T11:51:50.791Z,75
2016-08-26T11:52:50.836Z,75
2016-08-26T11:53:50.822Z,75
2016-08-26T11:54:50.851Z,75
2016-08-26T11:55:50.811Z,75
2016-08-26T11:56:50.856Z,75
2016-08-26T11:57:50.793Z,75
2016-08-26T11:58:50.831Z,75
2016-08-26T11:59:50.823Z,75
2016-08-26T12:00:50.811Z,75
2016-08-26T12:01:50.841Z,75
2016-08-26T12:02:50.843Z,75
2016-08-26T12:03:50.906Z,75
2016-08-26T12:04:50.860Z,75
2016-08-26T12:05:50.847Z,75
2016-08-26T12:06:50.855Z,75
2016-08-26T12:07:50.903Z,75
2016-08-26T12:08:50.868Z,75
2016-08-26T12:09:50.892Z,75
2016-08-26T12:10:50.893Z,75
2016-08-26T12:11:51.166Z,75
2016-08-26T12:12:50.925Z,75
2016-08-26T12:13:50.867Z,75
2016-08-26T12:14:50.948Z,75
2016-08-26T12:15:50.909Z,75
2016-08-26T12:16:50.921Z,75
2016-08-26T12:17:50.938Z,75
2016-08-26T12:18:50.887Z,75
2016-08-26T12:19:51.699Z,75
2016-08-26T12:20:50.936Z,75
2016-08-26T12:21:50.912Z,75
2016-08-26T12:22:51.013Z,75
2016-08-26T12:23:50.937Z,75
2016-08-26T12:24:50.979Z,75
2016-08-26T12:25:50.978Z,75
2016-08-26T12:26:50.951Z,75
2016-08-26T12:27:50.968Z,75
2016-08-26T12:28:50.926Z,75
2016-08-26T12:29:50.955Z,75
2016-08-26T12:30:50.977Z,75
2016-08-26T12:31:50.971Z,75
2016-08-26T12:32:51.032Z,75
2016-08-26T12:33:50.995Z,75
2016-08-26T12:34:51.321Z,75
2016-08-26T12:35:51.682Z,75
2016-08-26T12:36:50.996Z,75
2016-08-26T12:37:50.985Z,75
2016-08-26T12:38:51.026Z,75
2016-08-26T12:39:51.000Z,75
2016-08-26T12:40:51.081Z,75
2016-08-26T12:41:50.999Z,75
2016-08-26T12:42:51.007Z,75
2016-08-26T12:43:51.002Z,75
2016-08-26T12:44:51.046Z,75
2016-08-26T12:45:51.213Z,75
2016-08-26T12:46:51.136Z,75
2016-08-26T12:47:51.139Z,75
2016-08-26T12:48:51.352Z,75
2016-08-26T12:49:51.156Z,75
2016-08-26T12:50:51.323Z,75
2016-08-26T12:51:51.213Z,75
2016-08-26T12:52:52.651Z,75
2016-08-26T12:53:51.185Z,75
2016-08-26T12:54:51.467Z,75
2016-08-26T12:55:51.160Z,75
2016-08-26T12:56:51.325Z,75
2016-08-26T12:57:51.318Z,75
2016-08-26T12:58:51.320Z,75
2016-08-26T12:59:51.357Z,75
2016-08-26T13:00:51.435Z,75
2016-08-26T13:01:51.342Z,75
2016-08-26T13:02:51.547Z,75
2016-08-26T13:03:51.465Z,75
2016-08-26T13:04:52.084Z,75
2016-08-26T13:05:51.330Z,75
2016-08-26T13:06:51.345Z,75
2016-08-26T13:07:51.586Z,75
2016-08-26T13:08:51.444Z,75
2016-08-26T13:09:51.350Z,75
2016-08-26T13:10:51.535Z,75
2016-08-26T13:11:51.547Z,75
2016-08-26T13:12:51.452Z,75
2016-08-26T13:13:51.433Z,75
2016-08-26T13:14:51.459Z,75
2016-08-26T13:15:51.450Z,75
2016-08-26T13:16:51.665Z,75
2016-08-26T13:17:51.513Z,75
2016-08-26T13:18:51.500Z,75
2016-08-26T13:19:51.358Z,75
2016-08-26T13:20:51.484Z,75
2016-08-26T13:21:51.549Z,75
2016-08-26T13:22:51.495Z,75
2016-08-26T13:23:51.560Z,75
2016-08-26T13:24:51.524Z,75
2016-08-26T13:25:51.367Z,75
2016-08-26T13:26:51.385Z,75
2016-08-26T13:27:51.473Z,75
2016-08-26T13:28:51.436Z,75
2016-08-26T13:29:51.507Z,75
2016-08-26T13:30:51.514Z,75
2016-08-26T13:31:51.487Z,75
2016-08-26T13:32:51.496Z,75
2016-08-26T13:33:51.502Z,75
2016-08-26T13:34:51.475Z,75
2016-08-26T13:35:51.488Z,75
2016-08-26T13:36:51.530Z,75
2016-08-26T13:37:51.516Z,75
2016-08-26T13:38:51.538Z,75
2016-08-26T13:39:51.493Z,75
2016-08-26T13:40:52.127Z,75
2016-08-26T13:41:51.423Z,75
2016-08-26T13:42:51.486Z,75
2016-08-26T13:43:51.496Z,75
2016-08-26T13:44:51.541Z,75
2016-08-26T13:45:51.480Z,75
2016-08-26T13:46:52.179Z,75
2016-08-26T13:47:51.580Z,75
2016-08-26T13:48:51.538Z,75
2016-08-26T13:49:51.789Z,75
2016-08-26T13:50:51.522Z,75
2016-08-26T13:51:51.502Z,75
2016-08-26T13:52:51.495Z,75
2016-08-26T13:53:51.488Z,75
2016-08-26T13:54:52.237Z,75
2016-08-26T13:55:52.265Z,75
2016-08-26T13:56:53.219Z,75
2016-08-26T13:57:51.588Z,75
2016-08-26T13:58:51.543Z,75
2016-08-26T13:59:51.542Z,75
2016-08-26T14:00:51.571Z,75
2016-08-26T14:01:51.564Z,75
2016-08-26T14:02:51.559Z,75
2016-08-26T14:03:51.562Z,75
2016-08-26T14:04:51.483Z,75
2016-08-26T14:05:51.447Z,75
2016-08-26T14:06:51.506Z,75
2016-08-26T14:07:51.512Z,75
2016-08-26T14:08:51.500Z,75
2016-08-26T14:09:51.507Z,75
2016-08-26T14:10:51.552Z,75
2016-08-26T14:11:51.656Z,75
2016-08-26T14:12:51.489Z,75
2016-08-26T14:13:51.567Z,75
2016-08-26T14:14:51.519Z,75
2016-08-26T14:15:51.517Z,75
2016-08-26T14:16:51.589Z,75
2016-08-26T14:17:51.550Z,75
2016-08-26T14:18:51.513Z,75
2016-08-26T14:19:51.561Z,75
2016-08-26T14:20:51.658Z,75
2016-08-26T14:21:51.614Z,75
2016-08-26T14:22:51.610Z,75
2016-08-26T14:23:51.573Z,75
2016-08-26T14:24:51.584Z,75